sensor_id;sensor_type;location;lat;lon;timestamp;pressure;altitude;pressure_sealevel;temperature;humidity
19884;BME280;10104;50.732;10.174;2023-02-19T00:00:28;98020.28;;;9.01;100.00
19884;BME280;10104;50.732;10.174;2023-02-19T00:02:50;98027.19;;;9.02;100.00
19884;BME280;10104;50.732;10.174;2023-02-19T00:05:13;98040.25;;;8.95;100.00
19884;BME280;10104;50.732;10.174;2023-02-19T00:07:34;98037.16;;;8.91;100.00
19884;BME280;10104;50.732;10.174;2023-02-19T00:09:56;98035.34;;;8.92;100.00
19884;BME280;10104;50.732;10.174;2023-02-19T00:12:18;98018.50;;;8.93;100.00
19884;BME280;10104;50.732;10.174;2023-02-19T00:14:40;98018.69;;;8.83;100.00
19884;BME280;10104;50.732;10.174;2023-02-19T00:17:01;98010.63;;;8.85;100.00
19884;BME280;10104;50.732;10.174;2023-02-19T00:19:23;97993.25;;;8.90;100.00
19884;BME280;10104;50.732;10.174;2023-02-19T00:21:45;97996.25;;;8.87;100.00
19884;BME280;10104;50.732;10.174;2023-02-19T00:24:07;97986.09;;;8.99;100.00
19884;BME280;10104;50.732;10.174;2023-02-19T00:26:31;97978.41;;;8.89;100.00
19884;BME280;10104;50.732;10.174;2023-02-19T00:28:54;97987.81;;;8.92;100.00
19884;BME280;10104;50.732;10.174;2023-02-19T00:31:24;97982.69;;;8.90;100.00
19884;BME280;10104;50.732;10.174;2023-02-19T00:33:47;97967.66;;;8.91;100.00
19884;BME280;10104;50.732;10.174;2023-02-19T00:36:09;97961.56;;;8.90;100.00
19884;BME280;10104;50.732;10.174;2023-02-19T00:38:34;97950.31;;;8.97;100.00
19884;BME280;10104;50.732;10.174;2023-02-19T00:40:59;97945.84;;;8.97;100.00
19884;BME280;10104;50.732;10.174;2023-02-19T00:43:21;97927.25;;;8.90;100.00
19884;BME280;10104;50.732;10.174;2023-02-19T00:45:42;97928.06;;;8.91;100.00
19884;BME280;10104;50.732;10.174;2023-02-19T00:48:04;97930.69;;;8.91;100.00
19884;BME280;10104;50.732;10.174;2023-02-19T00:50:25;97943.72;;;8.92;100.00
19884;BME280;10104;50.732;10.174;2023-02-19T00:52:47;97930.25;;;8.87;100.00
19884;BME280;10104;50.732;10.174;2023-02-19T00:55:08;97941.63;;;8.88;100.00
19884;BME280;10104;50.732;10.174;2023-02-19T00:57:30;97945.25;;;8.87;100.00
19884;BME280;10104;50.732;10.174;2023-02-19T00:59:51;97945.31;;;8.79;100.00
19884;BME280;10104;50.732;10.174;2023-02-19T01:02:13;97951.88;;;8.83;100.00
19884;BME280;10104;50.732;10.174;2023-02-19T01:04:34;97944.03;;;8.75;100.00
19884;BME280;10104;50.732;10.174;2023-02-19T01:06:56;97924.03;;;8.80;100.00
19884;BME280;10104;50.732;10.174;2023-02-19T01:09:18;97926.66;;;8.80;100.00
19884;BME280;10104;50.732;10.174;2023-02-19T01:11:40;97911.97;;;8.78;100.00
19884;BME280;10104;50.732;10.174;2023-02-19T01:14:02;97925.47;;;8.83;100.00
19884;BME280;10104;50.732;10.174;2023-02-19T01:16:24;97923.84;;;8.82;100.00
19884;BME280;10104;50.732;10.174;2023-02-19T01:18:46;97916.44;;;8.77;100.00
19884;BME280;10104;50.732;10.174;2023-02-19T01:21:13;97918.56;;;8.82;100.00
19884;BME280;10104;50.732;10.174;2023-02-19T01:23:35;97913.63;;;8.79;100.00
19884;BME280;10104;50.732;10.174;2023-02-19T01:25:57;97913.78;;;8.77;100.00
19884;BME280;10104;50.732;10.174;2023-02-19T01:28:18;97918.56;;;8.82;100.00
19884;BME280;10104;50.732;10.174;2023-02-19T01:30:40;97930.66;;;8.76;100.00
19884;BME280;10104;50.732;10.174;2023-02-19T01:33:06;97909.53;;;8.76;100.00
19884;BME280;10104;50.732;10.174;2023-02-19T01:35:28;97887.94;;;8.73;100.00
19884;BME280;10104;50.732;10.174;2023-02-19T01:37:49;97904.72;;;8.80;100.00
19884;BME280;10104;50.732;10.174;2023-02-19T01:40:11;97907.53;;;8.78;100.00
19884;BME280;10104;50.732;10.174;2023-02-19T01:42:32;97897.25;;;8.83;100.00
19884;BME280;10104;50.732;10.174;2023-02-19T01:45:20;97916.94;;;8.81;100.00
19884;BME280;10104;50.732;10.174;2023-02-19T01:47:42;97909.06;;;8.73;100.00
19884;BME280;10104;50.732;10.174;2023-02-19T01:50:04;97906.25;;;8.74;100.00
19884;BME280;10104;50.732;10.174;2023-02-19T01:52:35;97902.13;;;8.72;100.00
19884;BME280;10104;50.732;10.174;2023-02-19T01:54:57;97906.41;;;8.73;100.00
19884;BME280;10104;50.732;10.174;2023-02-19T01:57:25;97905.75;;;8.71;100.00
19884;BME280;10104;50.732;10.174;2023-02-19T01:59:49;97913.06;;;8.69;100.00
19884;BME280;10104;50.732;10.174;2023-02-19T02:02:13;97911.53;;;8.74;100.00
19884;BME280;10104;50.732;10.174;2023-02-19T02:04:35;97889.63;;;8.66;100.00
19884;BME280;10104;50.732;10.174;2023-02-19T02:06:58;97887.53;;;8.61;100.00
19884;BME280;10104;50.732;10.174;2023-02-19T02:09:26;97885.06;;;8.60;100.00
19884;BME280;10104;50.732;10.174;2023-02-19T02:12:06;97888.22;;;8.55;100.00
19884;BME280;10104;50.732;10.174;2023-02-19T02:14:30;97876.69;;;8.56;100.00
19884;BME280;10104;50.732;10.174;2023-02-19T02:22:21;97859.66;;;8.59;100.00
19884;BME280;10104;50.732;10.174;2023-02-19T02:27:34;97864.78;;;8.60;100.00
19884;BME280;10104;50.732;10.174;2023-02-19T02:32:45;97852.84;;;8.64;100.00
19884;BME280;10104;50.732;10.174;2023-02-19T02:35:13;97846.78;;;8.64;100.00
19884;BME280;10104;50.732;10.174;2023-02-19T02:37:41;97844.22;;;8.70;100.00
19884;BME280;10104;50.732;10.174;2023-02-19T02:40:04;97856.25;;;8.73;100.00
19884;BME280;10104;50.732;10.174;2023-02-19T02:42:27;97859.78;;;8.65;100.00
19884;BME280;10104;50.732;10.174;2023-02-19T02:44:49;97858.25;;;8.71;100.00
19884;BME280;10104;50.732;10.174;2023-02-19T02:47:33;97852.50;;;8.67;100.00
19884;BME280;10104;50.732;10.174;2023-02-19T02:50:02;97855.59;;;8.71;100.00
19884;BME280;10104;50.732;10.174;2023-02-19T02:52:26;97867.47;;;8.75;100.00
19884;BME280;10104;50.732;10.174;2023-02-19T02:55:09;97850.81;;;8.74;100.00
19884;BME280;10104;50.732;10.174;2023-02-19T02:57:31;97844.53;;;8.75;100.00
19884;BME280;10104;50.732;10.174;2023-02-19T02:59:52;97839.72;;;8.79;100.00
19884;BME280;10104;50.732;10.174;2023-02-19T03:02:17;97853.84;;;8.86;100.00
19884;BME280;10104;50.732;10.174;2023-02-19T03:07:53;97835.16;;;8.73;100.00
19884;BME280;10104;50.732;10.174;2023-02-19T03:10:18;97835.31;;;8.71;100.00
19884;BME280;10104;50.732;10.174;2023-02-19T03:12:41;97840.44;;;8.73;100.00
19884;BME280;10104;50.732;10.174;2023-02-19T03:15:27;97834.16;;;8.74;100.00
19884;BME280;10104;50.732;10.174;2023-02-19T03:18:10;97823.09;;;8.70;100.00
19884;BME280;10104;50.732;10.174;2023-02-19T03:20:54;97823.31;;;8.69;100.00
19884;BME280;10104;50.732;10.174;2023-02-19T03:23:19;97820.28;;;8.72;100.00
19884;BME280;10104;50.732;10.174;2023-02-19T03:26:02;97822.66;;;8.67;100.00
19884;BME280;10104;50.732;10.174;2023-02-19T03:28:27;97829.03;;;8.72;100.00
19884;BME280;10104;50.732;10.174;2023-02-19T03:31:12;97830.41;;;8.68;100.00
19884;BME280;10104;50.732;10.174;2023-02-19T03:33:37;97827.13;;;8.66;100.00
19884;BME280;10104;50.732;10.174;2023-02-19T03:36:03;97831.03;;;8.70;100.00
19884;BME280;10104;50.732;10.174;2023-02-19T03:38:38;97836.50;;;8.69;100.00
19884;BME280;10104;50.732;10.174;2023-02-19T03:44:06;97835.69;;;8.68;100.00
19884;BME280;10104;50.732;10.174;2023-02-19T03:46:57;97832.88;;;8.70;100.00
19884;BME280;10104;50.732;10.174;2023-02-19T03:49:31;97834.69;;;8.69;100.00
19884;BME280;10104;50.732;10.174;2023-02-19T03:52:10;97852.69;;;8.66;100.00
19884;BME280;10104;50.732;10.174;2023-02-19T03:54:38;97846.59;;;8.65;100.00
19884;BME280;10104;50.732;10.174;2023-02-19T03:57:09;97846.69;;;8.72;100.00
19884;BME280;10104;50.732;10.174;2023-02-19T03:59:51;97841.78;;;8.69;100.00
19884;BME280;10104;50.732;10.174;2023-02-19T04:02:23;97829.97;;;8.79;100.00
19884;BME280;10104;50.732;10.174;2023-02-19T04:04:53;97835.31;;;8.71;100.00
19884;BME280;10104;50.732;10.174;2023-02-19T04:07:17;97821.94;;;8.73;100.00
19884;BME280;10104;50.732;10.174;2023-02-19T04:09:43;97823.47;;;8.67;100.00
19884;BME280;10104;50.732;10.174;2023-02-19T04:12:07;97832.88;;;8.70;100.00
19884;BME280;10104;50.732;10.174;2023-02-19T04:14:34;97833.97;;;8.75;100.00
19884;BME280;10104;50.732;10.174;2023-02-19T04:17:01;97844.22;;;8.70;100.00
19884;BME280;10104;50.732;10.174;2023-02-19T04:19:25;97832.50;;;8.73;100.00
19884;BME280;10104;50.732;10.174;2023-02-19T04:21:49;97820.00;;;8.67;100.00
19884;BME280;10104;50.732;10.174;2023-02-19T04:24:17;97845.25;;;8.69;100.00
19884;BME280;10104;50.732;10.174;2023-02-19T04:26:41;97825.41;;;8.73;100.00
19884;BME280;10104;50.732;10.174;2023-02-19T04:29:04;97857.53;;;8.77;100.00
19884;BME280;10104;50.732;10.174;2023-02-19T04:31:28;97849.44;;;8.78;100.00
19884;BME280;10104;50.732;10.174;2023-02-19T04:33:51;97855.50;;;8.87;100.00
19884;BME280;10104;50.732;10.174;2023-02-19T04:36:13;97860.66;;;8.80;100.00
19884;BME280;10104;50.732;10.174;2023-02-19T04:39:09;97844.28;;;8.85;100.00
19884;BME280;10104;50.732;10.174;2023-02-19T04:41:30;97844.34;;;8.77;100.00
19884;BME280;10104;50.732;10.174;2023-02-19T04:43:52;97836.91;;;8.80;100.00
19884;BME280;10104;50.732;10.174;2023-02-19T04:46:13;97865.41;;;8.85;100.00
19884;BME280;10104;50.732;10.174;2023-02-19T04:48:35;97847.75;;;8.85;100.00
19884;BME280;10104;50.732;10.174;2023-02-19T04:50:56;97844.09;;;8.86;100.00
19884;BME280;10104;50.732;10.174;2023-02-19T04:53:18;97843.81;;;8.81;100.00
19884;BME280;10104;50.732;10.174;2023-02-19T04:55:39;97849.38;;;8.86;100.00
19884;BME280;10104;50.732;10.174;2023-02-19T04:58:00;97844.75;;;8.88;100.00
19884;BME280;10104;50.732;10.174;2023-02-19T05:00:22;97838.00;;;8.86;100.00
19884;BME280;10104;50.732;10.174;2023-02-19T05:02:44;97835.19;;;8.87;100.00
19884;BME280;10104;50.732;10.174;2023-02-19T05:05:05;97830.25;;;8.84;100.00
19884;BME280;10104;50.732;10.174;2023-02-19T05:07:27;97832.28;;;8.82;100.00
19884;BME280;10104;50.732;10.174;2023-02-19T05:09:48;97834.81;;;8.90;100.00
19884;BME280;10104;50.732;10.174;2023-02-19T05:12:09;97855.13;;;8.90;100.00
19884;BME280;10104;50.732;10.174;2023-02-19T05:14:31;97844.28;;;8.85;100.00
19884;BME280;10104;50.732;10.174;2023-02-19T05:16:52;97838.00;;;8.86;100.00
19884;BME280;10104;50.732;10.174;2023-02-19T05:19:14;97829.25;;;8.85;100.00
19884;BME280;10104;50.732;10.174;2023-02-19T05:21:35;97842.56;;;8.92;100.00
19884;BME280;10104;50.732;10.174;2023-02-19T05:23:57;97850.22;;;8.87;100.00
19884;BME280;10104;50.732;10.174;2023-02-19T05:26:21;97846.09;;;8.84;100.00
19884;BME280;10104;50.732;10.174;2023-02-19T05:28:50;97858.03;;;8.80;100.00
19884;BME280;10104;50.732;10.174;2023-02-19T05:31:13;97843.56;;;8.91;100.00
19884;BME280;10104;50.732;10.174;2023-02-19T05:33:35;97845.88;;;8.94;100.00
19884;BME280;10104;50.732;10.174;2023-02-19T05:35:58;97858.75;;;8.89;100.00
19884;BME280;10104;50.732;10.174;2023-02-19T05:38:21;97862.53;;;8.95;100.00
19884;BME280;10104;50.732;10.174;2023-02-19T05:40:43;97883.72;;;9.01;100.00
19884;BME280;10104;50.732;10.174;2023-02-19T05:43:06;97880.53;;;8.91;100.00
19884;BME280;10104;50.732;10.174;2023-02-19T05:45:27;97875.19;;;8.99;100.00
19884;BME280;10104;50.732;10.174;2023-02-19T05:47:49;97873.53;;;8.98;100.00
19884;BME280;10104;50.732;10.174;2023-02-19T05:50:11;97879.44;;;8.85;100.00
19884;BME280;10104;50.732;10.174;2023-02-19T05:52:32;97931.06;;;8.88;100.00
19884;BME280;10104;50.732;10.174;2023-02-19T05:54:53;97907.09;;;8.89;100.00
19884;BME280;10104;50.732;10.174;2023-02-19T05:57:15;97892.63;;;8.85;100.00
19884;BME280;10104;50.732;10.174;2023-02-19T05:59:36;97890.63;;;8.87;100.00
19884;BME280;10104;50.732;10.174;2023-02-19T06:01:58;97902.84;;;8.88;100.00
19884;BME280;10104;50.732;10.174;2023-02-19T06:04:20;97917.56;;;8.83;100.00
19884;BME280;10104;50.732;10.174;2023-02-19T06:06:42;97912.75;;;8.86;100.00
19884;BME280;10104;50.732;10.174;2023-02-19T06:09:04;97926.13;;;8.85;100.00
19884;BME280;10104;50.732;10.174;2023-02-19T06:11:27;97908.31;;;8.87;100.00
19884;BME280;10104;50.732;10.174;2023-02-19T06:13:49;97930.88;;;8.89;100.00
19884;BME280;10104;50.732;10.174;2023-02-19T06:16:11;97930.03;;;8.89;100.00
19884;BME280;10104;50.732;10.174;2023-02-19T06:18:33;97920.97;;;8.91;100.00
19884;BME280;10104;50.732;10.174;2023-02-19T06:21:02;97927.53;;;8.96;100.00
19884;BME280;10104;50.732;10.174;2023-02-19T06:23:27;97919.47;;;8.89;100.00
19884;BME280;10104;50.732;10.174;2023-02-19T06:25:48;97942.78;;;8.85;100.00
19884;BME280;10104;50.732;10.174;2023-02-19T06:28:09;97948.72;;;8.87;100.00
19884;BME280;10104;50.732;10.174;2023-02-19T06:30:31;97952.81;;;8.90;100.00
19884;BME280;10104;50.732;10.174;2023-02-19T06:32:52;97952.00;;;8.89;100.00
19884;BME280;10104;50.732;10.174;2023-02-19T06:35:14;97947.53;;;8.90;100.00
19884;BME280;10104;50.732;10.174;2023-02-19T06:37:36;97953.53;;;8.84;100.00
19884;BME280;10104;50.732;10.174;2023-02-19T06:39:57;97964.75;;;8.86;100.00
19884;BME280;10104;50.732;10.174;2023-02-19T06:42:19;97959.09;;;8.89;100.00
19884;BME280;10104;50.732;10.174;2023-02-19T06:44:40;97973.78;;;8.91;100.00
19884;BME280;10104;50.732;10.174;2023-02-19T06:47:02;97971.78;;;8.93;100.00
19884;BME280;10104;50.732;10.174;2023-02-19T06:49:23;97984.69;;;8.88;100.00
19884;BME280;10104;50.732;10.174;2023-02-19T06:51:45;97975.13;;;8.87;100.00
19884;BME280;10104;50.732;10.174;2023-02-19T06:54:06;97977.28;;;8.84;100.00
19884;BME280;10104;50.732;10.174;2023-02-19T06:56:30;97974.75;;;8.90;100.00
19884;BME280;10104;50.732;10.174;2023-02-19T06:58:54;97971.66;;;8.87;100.00
19884;BME280;10104;50.732;10.174;2023-02-19T07:01:16;97971.88;;;8.77;100.00
19884;BME280;10104;50.732;10.174;2023-02-19T07:03:37;97980.81;;;8.76;100.00
19884;BME280;10104;50.732;10.174;2023-02-19T07:05:59;97993.13;;;8.84;100.00
19884;BME280;10104;50.732;10.174;2023-02-19T07:08:21;97977.16;;;8.77;100.00
19884;BME280;10104;50.732;10.174;2023-02-19T07:10:43;97999.06;;;8.86;100.00
19884;BME280;10104;50.732;10.174;2023-02-19T07:13:05;98000.88;;;8.85;100.00
19884;BME280;10104;50.732;10.174;2023-02-19T07:15:26;98004.81;;;8.89;100.00
19884;BME280;10104;50.732;10.174;2023-02-19T07:17:48;98013.50;;;8.75;100.00
19884;BME280;10104;50.732;10.174;2023-02-19T07:20:09;98019.22;;;8.79;100.00
19884;BME280;10104;50.732;10.174;2023-02-19T07:22:31;98013.44;;;8.83;100.00
19884;BME280;10104;50.732;10.174;2023-02-19T07:24:52;98018.84;;;8.90;100.00
19884;BME280;10104;50.732;10.174;2023-02-19T07:27:14;98049.88;;;8.88;100.00
19884;BME280;10104;50.732;10.174;2023-02-19T07:29:35;98031.69;;;8.93;100.00
19884;BME280;10104;50.732;10.174;2023-02-19T07:31:57;98040.25;;;8.95;100.00
19884;BME280;10104;50.732;10.174;2023-02-19T07:34:18;98021.97;;;8.93;100.00
19884;BME280;10104;50.732;10.174;2023-02-19T07:36:41;98039.91;;;8.98;100.00
19884;BME280;10104;50.732;10.174;2023-02-19T07:39:03;98033.84;;;8.89;100.00
19884;BME280;10104;50.732;10.174;2023-02-19T07:41:26;98033.66;;;8.99;100.00
19884;BME280;10104;50.732;10.174;2023-02-19T07:43:47;98027.38;;;9.00;100.00
19884;BME280;10104;50.732;10.174;2023-02-19T07:46:12;98043.56;;;8.97;100.00
19884;BME280;10104;50.732;10.174;2023-02-19T07:48:34;98047.16;;;9.04;100.00
19884;BME280;10104;50.732;10.174;2023-02-19T07:50:58;98061.72;;;9.00;100.00
19884;BME280;10104;50.732;10.174;2023-02-19T07:53:21;98047.44;;;9.09;100.00
19884;BME280;10104;50.732;10.174;2023-02-19T07:55:43;98054.50;;;9.17;100.00
19884;BME280;10104;50.732;10.174;2023-02-19T07:58:04;98055.66;;;9.14;100.00
19884;BME280;10104;50.732;10.174;2023-02-19T08:00:26;98060.34;;;9.04;100.00
19884;BME280;10104;50.732;10.174;2023-02-19T08:02:48;98049.44;;;9.07;100.00
19884;BME280;10104;50.732;10.174;2023-02-19T08:05:21;98057.09;;;9.25;100.00
19884;BME280;10104;50.732;10.174;2023-02-19T08:07:42;98074.94;;;9.23;100.00
19884;BME280;10104;50.732;10.174;2023-02-19T08:10:04;98091.13;;;9.20;100.00
19884;BME280;10104;50.732;10.174;2023-02-19T08:12:44;98082.75;;;9.08;100.00
19884;BME280;10104;50.732;10.174;2023-02-19T08:15:24;98095.50;;;9.05;100.00
19884;BME280;10104;50.732;10.174;2023-02-19T08:17:46;98095.66;;;9.11;100.00
19884;BME280;10104;50.732;10.174;2023-02-19T08:20:08;98104.56;;;9.10;100.00
19884;BME280;10104;50.732;10.174;2023-02-19T08:22:29;98093.56;;;8.99;100.00
19884;BME280;10104;50.732;10.174;2023-02-19T08:24:51;98106.38;;;9.10;100.00
19884;BME280;10104;50.732;10.174;2023-02-19T08:27:12;98120.31;;;9.26;100.00
19884;BME280;10104;50.732;10.174;2023-02-19T08:29:33;98143.47;;;9.24;100.00
19884;BME280;10104;50.732;10.174;2023-02-19T08:31:55;98130.16;;;9.10;100.00
19884;BME280;10104;50.732;10.174;2023-02-19T08:34:16;98128.78;;;9.14;100.00
19884;BME280;10104;50.732;10.174;2023-02-19T08:36:38;98138.09;;;9.32;100.00
19884;BME280;10104;50.732;10.174;2023-02-19T08:38:59;98135.09;;;9.66;100.00
19884;BME280;10104;50.732;10.174;2023-02-19T08:41:21;98140.56;;;9.65;100.00
19884;BME280;10104;50.732;10.174;2023-02-19T08:43:43;98148.91;;;9.54;100.00
19884;BME280;10104;50.732;10.174;2023-02-19T08:46:05;98150.84;;;9.60;100.00
19884;BME280;10104;50.732;10.174;2023-02-19T08:48:27;98160.25;;;9.85;100.00
19884;BME280;10104;50.732;10.174;2023-02-19T08:50:56;98155.06;;;9.69;100.00
19884;BME280;10104;50.732;10.174;2023-02-19T08:53:18;98161.88;;;9.63;100.00
19884;BME280;10104;50.732;10.174;2023-02-19T08:55:40;98160.88;;;9.64;100.00
19884;BME280;10104;50.732;10.174;2023-02-19T08:58:01;98157.91;;;9.67;100.00
19884;BME280;10104;50.732;10.174;2023-02-19T09:00:23;98170.00;;;9.85;100.00
19884;BME280;10104;50.732;10.174;2023-02-19T09:02:44;98162.03;;;9.93;100.00
19884;BME280;10104;50.732;10.174;2023-02-19T09:05:06;98170.66;;;9.87;100.00
19884;BME280;10104;50.732;10.174;2023-02-19T09:07:27;98177.22;;;9.91;100.00
19884;BME280;10104;50.732;10.174;2023-02-19T09:09:49;98173.59;;;9.92;100.00
19884;BME280;10104;50.732;10.174;2023-02-19T09:12:11;98185.03;;;9.84;100.00
19884;BME280;10104;50.732;10.174;2023-02-19T09:14:34;98187.81;;;9.91;100.00
19884;BME280;10104;50.732;10.174;2023-02-19T09:16:55;98193.09;;;9.68;100.00
19884;BME280;10104;50.732;10.174;2023-02-19T09:19:17;98189.50;;;9.61;100.00
19884;BME280;10104;50.732;10.174;2023-02-19T09:21:38;98198.84;;;9.41;100.00
19884;BME280;10104;50.732;10.174;2023-02-19T09:23:59;98186.50;;;9.33;100.00
19884;BME280;10104;50.732;10.174;2023-02-19T09:26:21;98191.84;;;9.25;100.00
19884;BME280;10104;50.732;10.174;2023-02-19T09:28:43;98190.47;;;9.37;100.00
19884;BME280;10104;50.732;10.174;2023-02-19T09:31:06;98200.47;;;9.19;100.00
19884;BME280;10104;50.732;10.174;2023-02-19T09:33:28;98199.09;;;9.23;100.00
19884;BME280;10104;50.732;10.174;2023-02-19T09:35:49;98207.50;;;9.26;100.00
19884;BME280;10104;50.732;10.174;2023-02-19T09:38:11;98199.41;;;9.28;100.00
19884;BME280;10104;50.732;10.174;2023-02-19T09:40:34;98212.94;;;9.33;100.00
19884;BME280;10104;50.732;10.174;2023-02-19T09:42:56;98215.69;;;9.48;100.00
19884;BME280;10104;50.732;10.174;2023-02-19T09:45:22;98212.63;;;9.59;100.00
19884;BME280;10104;50.732;10.174;2023-02-19T09:47:44;98215.78;;;9.62;100.00
19884;BME280;10104;50.732;10.174;2023-02-19T09:50:08;98217.53;;;9.70;100.00
19884;BME280;10104;50.732;10.174;2023-02-19T09:52:35;98220.38;;;9.68;100.00
19884;BME280;10104;50.732;10.174;2023-02-19T09:55:00;98228.84;;;9.87;100.00
19884;BME280;10104;50.732;10.174;2023-02-19T09:57:23;98221.25;;;9.84;100.00
19884;BME280;10104;50.732;10.174;2023-02-19T10:00:28;98218.69;;;10.21;100.00
19884;BME280;10104;50.732;10.174;2023-02-19T10:02:52;98225.09;;;10.64;100.00
19884;BME280;10104;50.732;10.174;2023-02-19T10:05:15;98226.31;;;10.76;100.00
19884;BME280;10104;50.732;10.174;2023-02-19T10:07:40;98245.50;;;10.78;100.00
19884;BME280;10104;50.732;10.174;2023-02-19T10:12:34;98255.41;;;10.62;100.00
19884;BME280;10104;50.732;10.174;2023-02-19T10:15:04;98245.25;;;10.50;100.00
19884;BME280;10104;50.732;10.174;2023-02-19T10:17:31;98249.59;;;10.43;100.00
19884;BME280;10104;50.732;10.174;2023-02-19T10:19:56;98246.34;;;10.41;100.00
19884;BME280;10104;50.732;10.174;2023-02-19T10:22:18;98261.28;;;10.34;100.00
19884;BME280;10104;50.732;10.174;2023-02-19T10:24:41;98259.16;;;10.30;100.00
19884;BME280;10104;50.732;10.174;2023-02-19T10:27:09;98261.63;;;10.31;100.00
19884;BME280;10104;50.732;10.174;2023-02-19T10:29:30;98271.28;;;10.24;100.00
19884;BME280;10104;50.732;10.174;2023-02-19T10:32:14;98272.66;;;10.12;100.00
19884;BME280;10104;50.732;10.174;2023-02-19T10:34:38;98280.38;;;10.22;100.00
19884;BME280;10104;50.732;10.174;2023-02-19T10:37:00;98290.97;;;10.22;100.00
19884;BME280;10104;50.732;10.174;2023-02-19T10:41:43;98287.31;;;10.45;100.00
19884;BME280;10104;50.732;10.174;2023-02-19T10:44:08;98294.66;;;10.58;100.00
19884;BME280;10104;50.732;10.174;2023-02-19T10:46:48;98296.91;;;10.46;100.00
19884;BME280;10104;50.732;10.174;2023-02-19T10:51:52;98309.78;;;10.72;99.61
19884;BME280;10104;50.732;10.174;2023-02-19T10:54:24;98305.22;;;10.81;97.98
19884;BME280;10104;50.732;10.174;2023-02-19T10:56:45;98310.19;;;10.99;99.22
19884;BME280;10104;50.732;10.174;2023-02-19T10:59:27;98312.16;;;11.34;97.38
19884;BME280;10104;50.732;10.174;2023-02-19T11:02:07;98315.44;;;11.36;97.15
19884;BME280;10104;50.732;10.174;2023-02-19T11:04:36;98333.53;;;11.18;95.41
19884;BME280;10104;50.732;10.174;2023-02-19T11:07:16;98334.81;;;11.36;96.26
19884;BME280;10104;50.732;10.174;2023-02-19T11:09:40;98344.78;;;11.20;95.64
19884;BME280;10104;50.732;10.174;2023-02-19T11:12:06;98344.72;;;11.28;94.45
19884;BME280;10104;50.732;10.174;2023-02-19T11:14:31;98335.28;;;11.55;93.47
19884;BME280;10104;50.732;10.174;2023-02-19T11:16:55;98348.84;;;11.45;94.58
19884;BME280;10104;50.732;10.174;2023-02-19T11:19:24;98343.97;;;11.34;93.44
19884;BME280;10104;50.732;10.174;2023-02-19T11:21:47;98338.78;;;11.41;93.92
19884;BME280;10104;50.732;10.174;2023-02-19T11:24:41;98346.28;;;11.52;93.66
19884;BME280;10104;50.732;10.174;2023-02-19T11:27:05;98352.38;;;11.67;93.85
19884;BME280;10104;50.732;10.174;2023-02-19T11:29:27;98347.28;;;11.65;90.83
19884;BME280;10104;50.732;10.174;2023-02-19T11:31:55;98347.75;;;11.84;92.31
19884;BME280;10104;50.732;10.174;2023-02-19T11:36:41;98355.47;;;11.79;89.44
19884;BME280;10104;50.732;10.174;2023-02-19T11:42:06;98346.72;;;11.55;88.27
19884;BME280;10104;50.732;10.174;2023-02-19T12:01:09;98330.19;;;11.53;88.70
19884;BME280;10104;50.732;10.174;2023-02-19T12:09:15;98344.19;;;11.47;91.54
19884;BME280;10104;50.732;10.174;2023-02-19T12:22:27;98364.81;;;10.85;96.22
19884;BME280;10104;50.732;10.174;2023-02-19T12:38:29;98389.28;;;10.41;100.00
19884;BME280;10104;50.732;10.174;2023-02-19T12:41:08;98381.41;;;10.56;99.77
19884;BME280;10104;50.732;10.174;2023-02-19T12:43:34;98388.22;;;10.50;98.86
19884;BME280;10104;50.732;10.174;2023-02-19T12:46:17;98395.00;;;10.76;97.86
19884;BME280;10104;50.732;10.174;2023-02-19T12:48:47;98383.75;;;10.97;96.91
19884;BME280;10104;50.732;10.174;2023-02-19T12:51:38;98392.16;;;11.38;96.68
19884;BME280;10104;50.732;10.174;2023-02-19T12:54:26;98382.66;;;11.43;94.82
19884;BME280;10104;50.732;10.174;2023-02-19T12:59:19;98379.56;;;11.69;93.76
19884;BME280;10104;50.732;10.174;2023-02-19T13:01:59;98385.00;;;11.75;93.83
19884;BME280;10104;50.732;10.174;2023-02-19T13:04:50;98391.38;;;11.52;92.97
19884;BME280;10104;50.732;10.174;2023-02-19T13:07:23;98392.09;;;11.46;94.75
19884;BME280;10104;50.732;10.174;2023-02-19T13:10:26;98396.75;;;11.44;95.01
19884;BME280;10104;50.732;10.174;2023-02-19T13:12:53;98393.44;;;11.27;94.70
19884;BME280;10104;50.732;10.174;2023-02-19T13:15:20;98406.31;;;11.30;94.69
19884;BME280;10104;50.732;10.174;2023-02-19T13:17:55;98409.19;;;11.58;93.52
19884;BME280;10104;50.732;10.174;2023-02-19T13:22:57;98419.59;;;11.82;92.37
19884;BME280;10104;50.732;10.174;2023-02-19T13:31:15;98424.75;;;11.23;94.64
19884;BME280;10104;50.732;10.174;2023-02-19T13:36:12;98426.09;;;11.05;93.56
19884;BME280;10104;50.732;10.174;2023-02-19T13:38:40;98429.22;;;10.85;94.87
19884;BME280;10104;50.732;10.174;2023-02-19T13:41:03;98436.69;;;10.82;95.25
19884;BME280;10104;50.732;10.174;2023-02-19T13:43:34;98439.16;;;10.83;95.86
19884;BME280;10104;50.732;10.174;2023-02-19T13:46:05;98445.88;;;10.71;95.56
19884;BME280;10104;50.732;10.174;2023-02-19T13:48:33;98447.03;;;10.69;95.64
19884;BME280;10104;50.732;10.174;2023-02-19T13:56:01;98454.19;;;10.29;98.72
19884;BME280;10104;50.732;10.174;2023-02-19T14:00:54;98459.50;;;10.29;99.49
19884;BME280;10104;50.732;10.174;2023-02-19T14:06:01;98470.16;;;10.05;100.00
19884;BME280;10104;50.732;10.174;2023-02-19T14:11:06;98475.97;;;9.92;100.00
19884;BME280;10104;50.732;10.174;2023-02-19T14:16:29;98489.81;;;10.02;100.00
19884;BME280;10104;50.732;10.174;2023-02-19T14:18:51;98488.47;;;10.14;100.00
19884;BME280;10104;50.732;10.174;2023-02-19T14:23:55;98489.22;;;10.39;99.65
19884;BME280;10104;50.732;10.174;2023-02-19T14:26:18;98475.03;;;10.32;100.00
19884;BME280;10104;50.732;10.174;2023-02-19T14:28:43;98481.78;;;10.43;100.00